sensor_id;sensor_type;location;lat;lon;timestamp;temperature;humidity
75961;SHT30;64644;48.914;2.254;2023-02-28T00:00:17;5.49;50.32
75961;SHT30;64644;48.914;2.254;2023-02-28T00:02:44;5.44;50.25
75961;SHT30;64644;48.914;2.254;2023-02-28T00:05:12;5.44;50.48
75961;SHT30;64644;48.914;2.254;2023-02-28T00:07:40;5.40;50.36
75961;SHT30;64644;48.914;2.254;2023-02-28T00:10:07;5.42;50.26
75961;SHT30;64644;48.914;2.254;2023-02-28T00:12:33;5.39;50.43
75961;SHT30;64644;48.914;2.254;2023-02-28T00:14:59;5.38;50.57
75961;SHT30;64644;48.914;2.254;2023-02-28T00:17:25;5.36;50.28
75961;SHT30;64644;48.914;2.254;2023-02-28T00:19:51;5.33;50.53
75961;SHT30;64644;48.914;2.254;2023-02-28T00:22:19;5.33;50.58
75961;SHT30;64644;48.914;2.254;2023-02-28T00:24:45;5.31;50.36
75961;SHT30;64644;48.914;2.254;2023-02-28T00:27:11;5.28;50.62
75961;SHT30;64644;48.914;2.254;2023-02-28T00:29:37;5.29;50.77
75961;SHT30;64644;48.914;2.254;2023-02-28T00:32:03;5.26;50.85
75961;SHT30;64644;48.914;2.254;2023-02-28T00:34:29;5.25;50.78
75961;SHT30;64644;48.914;2.254;2023-02-28T00:36:55;5.28;50.56
75961;SHT30;64644;48.914;2.254;2023-02-28T00:39:20;5.25;50.60
75961;SHT30;64644;48.914;2.254;2023-02-28T00:41:46;5.22;50.59
75961;SHT30;64644;48.914;2.254;2023-02-28T00:44:12;5.24;50.54
75961;SHT30;64644;48.914;2.254;2023-02-28T00:46:37;5.22;50.59
75961;SHT30;64644;48.914;2.254;2023-02-28T00:49:02;5.22;50.61
75961;SHT30;64644;48.914;2.254;2023-02-28T00:51:28;5.21;50.62
75961;SHT30;64644;48.914;2.254;2023-02-28T00:53:54;5.19;50.65
75961;SHT30;64644;48.914;2.254;2023-02-28T00:56:19;5.18;50.78
75961;SHT30;64644;48.914;2.254;2023-02-28T00:58:45;5.18;50.81
75961;SHT30;64644;48.914;2.254;2023-02-28T01:01:10;5.16;50.78
75961;SHT30;64644;48.914;2.254;2023-02-28T01:03:35;5.16;50.86
75961;SHT30;64644;48.914;2.254;2023-02-28T01:06:01;5.18;50.81
75961;SHT30;64644;48.914;2.254;2023-02-28T01:08:27;5.14;50.79
75961;SHT30;64644;48.914;2.254;2023-02-28T01:10:53;5.15;50.85
75961;SHT30;64644;48.914;2.254;2023-02-28T01:13:19;5.14;50.92
75961;SHT30;64644;48.914;2.254;2023-02-28T01:15:54;5.11;50.86
75961;SHT30;64644;48.914;2.254;2023-02-28T01:18:21;5.05;51.04
75961;SHT30;64644;48.914;2.254;2023-02-28T01:20:47;5.09;50.97
75961;SHT30;64644;48.914;2.254;2023-02-28T01:23:13;5.07;50.86
75961;SHT30;64644;48.914;2.254;2023-02-28T01:25:38;5.07;50.74
75961;SHT30;64644;48.914;2.254;2023-02-28T01:28:05;5.02;50.85
75961;SHT30;64644;48.914;2.254;2023-02-28T01:30:31;5.02;51.04
75961;SHT30;64644;48.914;2.254;2023-02-28T01:32:57;4.99;50.90
75961;SHT30;64644;48.914;2.254;2023-02-28T01:35:22;4.98;50.82
75961;SHT30;64644;48.914;2.254;2023-02-28T01:37:47;4.95;50.83
75961;SHT30;64644;48.914;2.254;2023-02-28T01:40:14;4.98;50.86
75961;SHT30;64644;48.914;2.254;2023-02-28T01:42:39;4.94;50.70
75961;SHT30;64644;48.914;2.254;2023-02-28T01:45:30;4.92;50.87
75961;SHT30;64644;48.914;2.254;2023-02-28T01:48:05;4.91;50.94
75961;SHT30;64644;48.914;2.254;2023-02-28T01:50:35;4.92;51.01
75961;SHT30;64644;48.914;2.254;2023-02-28T01:53:04;4.90;50.75
75961;SHT30;64644;48.914;2.254;2023-02-28T01:55:32;4.90;50.87
75961;SHT30;64644;48.914;2.254;2023-02-28T01:58:00;4.87;51.10
75961;SHT30;64644;48.914;2.254;2023-02-28T02:00:28;4.87;51.01
75961;SHT30;64644;48.914;2.254;2023-02-28T02:02:59;4.85;51.09
75961;SHT30;64644;48.914;2.254;2023-02-28T02:05:28;4.85;51.13
75961;SHT30;64644;48.914;2.254;2023-02-28T02:07:57;4.80;51.12
75961;SHT30;64644;48.914;2.254;2023-02-28T02:10:40;4.80;51.12
75961;SHT30;64644;48.914;2.254;2023-02-28T02:18:46;4.79;50.71
75961;SHT30;64644;48.914;2.254;2023-02-28T02:35:24;4.69;50.63
75961;SHT30;64644;48.914;2.254;2023-02-28T02:42:41;4.66;50.69
75961;SHT30;64644;48.914;2.254;2023-02-28T02:45:19;4.64;50.67
75961;SHT30;64644;48.914;2.254;2023-02-28T02:47:48;4.64;50.54
75961;SHT30;64644;48.914;2.254;2023-02-28T02:50:22;4.59;50.44
75961;SHT30;64644;48.914;2.254;2023-02-28T02:52:53;4.60;50.75
75961;SHT30;64644;48.914;2.254;2023-02-28T02:55:21;4.57;50.75
75961;SHT30;64644;48.914;2.254;2023-02-28T02:57:52;4.57;50.61
75961;SHT30;64644;48.914;2.254;2023-02-28T03:00:24;4.54;50.82
75961;SHT30;64644;48.914;2.254;2023-02-28T03:02:52;4.59;50.73
75961;SHT30;64644;48.914;2.254;2023-02-28T03:05:26;4.57;50.67
75961;SHT30;64644;48.914;2.254;2023-02-28T03:07:52;4.53;50.73
75961;SHT30;64644;48.914;2.254;2023-02-28T03:10:39;4.54;50.64
75961;SHT30;64644;48.914;2.254;2023-02-28T03:16:15;4.53;50.57
75961;SHT30;64644;48.914;2.254;2023-02-28T03:21:58;4.48;50.77
75961;SHT30;64644;48.914;2.254;2023-02-28T03:27:20;4.45;50.69
75961;SHT30;64644;48.914;2.254;2023-02-28T03:29:51;4.42;50.72
75961;SHT30;64644;48.914;2.254;2023-02-28T03:32:39;4.43;50.74
75961;SHT30;64644;48.914;2.254;2023-02-28T03:35:11;4.39;50.74
75961;SHT30;64644;48.914;2.254;2023-02-28T03:37:41;4.42;50.74
75961;SHT30;64644;48.914;2.254;2023-02-28T03:40:20;4.38;50.81
75961;SHT30;64644;48.914;2.254;2023-02-28T03:42:49;4.39;50.70
75961;SHT30;64644;48.914;2.254;2023-02-28T03:45:22;4.38;50.76
75961;SHT30;64644;48.914;2.254;2023-02-28T03:48:03;4.36;50.65
75961;SHT30;64644;48.914;2.254;2023-02-28T03:50:42;4.36;50.58
75961;SHT30;64644;48.914;2.254;2023-02-28T03:53:25;4.35;50.65
75961;SHT30;64644;48.914;2.254;2023-02-28T03:56:16;4.35;50.61
75961;SHT30;64644;48.914;2.254;2023-02-28T03:59:05;4.34;50.76
75961;SHT30;64644;48.914;2.254;2023-02-28T04:01:41;4.35;50.70
75961;SHT30;64644;48.914;2.254;2023-02-28T04:04:08;4.29;50.76
75961;SHT30;64644;48.914;2.254;2023-02-28T04:06:35;4.26;50.64
75961;SHT30;64644;48.914;2.254;2023-02-28T04:09:01;4.24;50.79
75961;SHT30;64644;48.914;2.254;2023-02-28T04:11:42;4.22;50.89
75961;SHT30;64644;48.914;2.254;2023-02-28T04:14:09;4.19;50.92
75961;SHT30;64644;48.914;2.254;2023-02-28T04:16:37;4.18;50.92
75961;SHT30;64644;48.914;2.254;2023-02-28T04:19:05;4.18;50.95
75961;SHT30;64644;48.914;2.254;2023-02-28T04:21:33;4.14;51.00
75961;SHT30;64644;48.914;2.254;2023-02-28T04:23:58;4.14;51.14
75961;SHT30;64644;48.914;2.254;2023-02-28T04:26:28;4.11;51.19
75961;SHT30;64644;48.914;2.254;2023-02-28T04:28:55;4.08;51.22
75961;SHT30;64644;48.914;2.254;2023-02-28T04:31:21;4.08;51.33
75961;SHT30;64644;48.914;2.254;2023-02-28T04:33:46;4.05;51.29
75961;SHT30;64644;48.914;2.254;2023-02-28T04:36:12;4.05;51.41
75961;SHT30;64644;48.914;2.254;2023-02-28T04:38:39;4.05;51.47
75961;SHT30;64644;48.914;2.254;2023-02-28T04:41:05;4.02;51.56
75961;SHT30;64644;48.914;2.254;2023-02-28T04:43:31;4.04;51.74
75961;SHT30;64644;48.914;2.254;2023-02-28T04:46:00;4.01;51.64
75961;SHT30;64644;48.914;2.254;2023-02-28T04:48:27;4.02;51.42
75961;SHT30;64644;48.914;2.254;2023-02-28T04:50:53;4.01;51.49
75961;SHT30;64644;48.914;2.254;2023-02-28T04:53:19;3.98;51.61
75961;SHT30;64644;48.914;2.254;2023-02-28T04:55:45;3.97;51.59
75961;SHT30;64644;48.914;2.254;2023-02-28T04:58:11;3.94;51.57
75961;SHT30;64644;48.914;2.254;2023-02-28T05:00:36;3.94;51.76
75961;SHT30;64644;48.914;2.254;2023-02-28T05:03:02;3.95;51.81
75961;SHT30;64644;48.914;2.254;2023-02-28T05:05:27;3.93;51.73
75961;SHT30;64644;48.914;2.254;2023-02-28T05:07:53;3.94;51.83
75961;SHT30;64644;48.914;2.254;2023-02-28T05:10:21;3.91;52.00
75961;SHT30;64644;48.914;2.254;2023-02-28T05:12:46;3.93;51.87
75961;SHT30;64644;48.914;2.254;2023-02-28T05:15:14;3.90;51.97
75961;SHT30;64644;48.914;2.254;2023-02-28T05:17:39;3.86;51.95
75961;SHT30;64644;48.914;2.254;2023-02-28T05:20:06;3.84;51.86
75961;SHT30;64644;48.914;2.254;2023-02-28T05:22:32;3.83;52.04
75961;SHT30;64644;48.914;2.254;2023-02-28T05:24:57;3.80;52.07
75961;SHT30;64644;48.914;2.254;2023-02-28T05:27:23;3.80;52.13
75961;SHT30;64644;48.914;2.254;2023-02-28T05:29:48;3.76;52.45
75961;SHT30;64644;48.914;2.254;2023-02-28T05:32:14;3.77;52.49
75961;SHT30;64644;48.914;2.254;2023-02-28T05:34:40;3.76;52.53
75961;SHT30;64644;48.914;2.254;2023-02-28T05:37:11;3.74;52.76
75961;SHT30;64644;48.914;2.254;2023-02-28T05:39:37;3.72;52.87
75961;SHT30;64644;48.914;2.254;2023-02-28T05:42:02;3.72;52.99
75961;SHT30;64644;48.914;2.254;2023-02-28T05:44:28;3.70;53.14
75961;SHT30;64644;48.914;2.254;2023-02-28T05:46:53;3.67;52.93
75961;SHT30;64644;48.914;2.254;2023-02-28T05:49:19;3.66;53.29
75961;SHT30;64644;48.914;2.254;2023-02-28T05:51:44;3.62;53.46
75961;SHT30;64644;48.914;2.254;2023-02-28T05:54:09;3.59;53.62
75961;SHT30;64644;48.914;2.254;2023-02-28T05:56:35;3.56;53.66
75961;SHT30;64644;48.914;2.254;2023-02-28T05:59:02;3.55;53.77
75961;SHT30;64644;48.914;2.254;2023-02-28T06:01:42;3.52;53.64
75961;SHT30;64644;48.914;2.254;2023-02-28T06:04:13;3.48;54.05
75961;SHT30;64644;48.914;2.254;2023-02-28T06:06:40;3.43;54.17
75961;SHT30;64644;48.914;2.254;2023-02-28T06:09:05;3.43;54.26
75961;SHT30;64644;48.914;2.254;2023-02-28T06:11:31;3.42;54.41
75961;SHT30;64644;48.914;2.254;2023-02-28T06:13:57;3.40;54.39
75961;SHT30;64644;48.914;2.254;2023-02-28T06:16:26;3.39;54.34
75961;SHT30;64644;48.914;2.254;2023-02-28T06:18:52;3.40;54.55
75961;SHT30;64644;48.914;2.254;2023-02-28T06:21:18;3.35;54.71
75961;SHT30;64644;48.914;2.254;2023-02-28T06:23:43;3.38;54.72
75961;SHT30;64644;48.914;2.254;2023-02-28T06:26:09;3.36;54.81
75961;SHT30;64644;48.914;2.254;2023-02-28T06:28:34;3.36;54.87
75961;SHT30;64644;48.914;2.254;2023-02-28T06:31:06;3.36;55.09
75961;SHT30;64644;48.914;2.254;2023-02-28T06:33:31;3.34;54.81
75961;SHT30;64644;48.914;2.254;2023-02-28T06:35:57;3.35;55.06
75961;SHT30;64644;48.914;2.254;2023-02-28T06:38:22;3.34;55.20
75961;SHT30;64644;48.914;2.254;2023-02-28T06:40:56;3.35;55.24
75961;SHT30;64644;48.914;2.254;2023-02-28T06:43:23;3.34;55.31
75961;SHT30;64644;48.914;2.254;2023-02-28T06:45:49;3.34;55.28
75961;SHT30;64644;48.914;2.254;2023-02-28T06:48:14;3.34;55.23
75961;SHT30;64644;48.914;2.254;2023-02-28T06:50:42;3.31;55.55
75961;SHT30;64644;48.914;2.254;2023-02-28T06:53:09;3.31;55.57
75961;SHT30;64644;48.914;2.254;2023-02-28T06:55:37;3.31;55.53
75961;SHT30;64644;48.914;2.254;2023-02-28T06:58:03;3.35;55.58
75961;SHT30;64644;48.914;2.254;2023-02-28T07:00:28;3.34;55.64
75961;SHT30;64644;48.914;2.254;2023-02-28T07:02:54;3.35;55.51
75961;SHT30;64644;48.914;2.254;2023-02-28T07:05:20;3.35;55.34
75961;SHT30;64644;48.914;2.254;2023-02-28T07:07:45;3.34;55.74
75961;SHT30;64644;48.914;2.254;2023-02-28T07:10:12;3.34;55.94
75961;SHT30;64644;48.914;2.254;2023-02-28T07:12:39;3.35;55.76
75961;SHT30;64644;48.914;2.254;2023-02-28T07:15:05;3.34;55.77
75961;SHT30;64644;48.914;2.254;2023-02-28T07:17:31;3.35;56.02
75961;SHT30;64644;48.914;2.254;2023-02-28T07:19:57;3.35;55.89
75961;SHT30;64644;48.914;2.254;2023-02-28T07:22:22;3.36;56.05
75961;SHT30;64644;48.914;2.254;2023-02-28T07:24:48;3.38;56.23
75961;SHT30;64644;48.914;2.254;2023-02-28T07:27:13;3.43;55.82
75961;SHT30;64644;48.914;2.254;2023-02-28T07:29:51;3.43;55.96
75961;SHT30;64644;48.914;2.254;2023-02-28T07:32:16;3.46;56.18
75961;SHT30;64644;48.914;2.254;2023-02-28T07:34:41;3.49;56.23
75961;SHT30;64644;48.914;2.254;2023-02-28T07:37:07;3.56;56.04
75961;SHT30;64644;48.914;2.254;2023-02-28T07:39:32;3.60;56.07
75961;SHT30;64644;48.914;2.254;2023-02-28T07:41:58;3.64;56.03
75961;SHT30;64644;48.914;2.254;2023-02-28T07:44:25;3.70;55.90
75961;SHT30;64644;48.914;2.254;2023-02-28T07:46:50;3.73;55.74
75961;SHT30;64644;48.914;2.254;2023-02-28T07:49:16;3.79;55.84
75961;SHT30;64644;48.914;2.254;2023-02-28T07:51:41;3.83;55.73
75961;SHT30;64644;48.914;2.254;2023-02-28T07:54:07;3.86;55.80
75961;SHT30;64644;48.914;2.254;2023-02-28T07:56:32;3.94;55.68
75961;SHT30;64644;48.914;2.254;2023-02-28T07:58:58;3.98;55.41
75961;SHT30;64644;48.914;2.254;2023-02-28T08:01:23;3.98;55.46
75961;SHT30;64644;48.914;2.254;2023-02-28T08:03:49;4.04;55.53
75961;SHT30;64644;48.914;2.254;2023-02-28T08:06:20;4.12;55.44
75961;SHT30;64644;48.914;2.254;2023-02-28T08:08:45;4.14;55.08
75961;SHT30;64644;48.914;2.254;2023-02-28T08:11:11;4.17;55.50
75961;SHT30;64644;48.914;2.254;2023-02-28T08:13:36;4.26;55.36
75961;SHT30;64644;48.914;2.254;2023-02-28T08:16:02;4.36;55.29
75961;SHT30;64644;48.914;2.254;2023-02-28T08:18:28;4.41;55.22
75961;SHT30;64644;48.914;2.254;2023-02-28T08:20:53;4.50;55.11
75961;SHT30;64644;48.914;2.254;2023-02-28T08:23:18;4.57;54.84
75961;SHT30;64644;48.914;2.254;2023-02-28T08:25:44;4.57;54.58
75961;SHT30;64644;48.914;2.254;2023-02-28T08:28:09;4.62;54.56
75961;SHT30;64644;48.914;2.254;2023-02-28T08:30:35;4.63;54.50
75961;SHT30;64644;48.914;2.254;2023-02-28T08:33:00;4.70;54.64
75961;SHT30;64644;48.914;2.254;2023-02-28T08:35:26;4.77;54.56
75961;SHT30;64644;48.914;2.254;2023-02-28T08:37:52;4.87;54.32
75961;SHT30;64644;48.914;2.254;2023-02-28T08:40:17;4.94;54.28
75961;SHT30;64644;48.914;2.254;2023-02-28T08:42:46;5.02;54.10
75961;SHT30;64644;48.914;2.254;2023-02-28T08:45:12;5.08;53.93
75961;SHT30;64644;48.914;2.254;2023-02-28T08:47:38;5.18;53.80
75961;SHT30;64644;48.914;2.254;2023-02-28T08:50:05;5.22;53.67
75961;SHT30;64644;48.914;2.254;2023-02-28T08:52:30;5.28;53.50
75961;SHT30;64644;48.914;2.254;2023-02-28T08:54:56;5.36;53.49
75961;SHT30;64644;48.914;2.254;2023-02-28T08:57:21;5.46;53.39
75961;SHT30;64644;48.914;2.254;2023-02-28T08:59:46;5.50;53.27
75961;SHT30;64644;48.914;2.254;2023-02-28T09:02:13;5.59;53.04
75961;SHT30;64644;48.914;2.254;2023-02-28T09:04:40;5.60;52.63
75961;SHT30;64644;48.914;2.254;2023-02-28T09:07:06;5.67;52.68
75961;SHT30;64644;48.914;2.254;2023-02-28T09:09:31;5.71;52.49
75961;SHT30;64644;48.914;2.254;2023-02-28T09:11:57;5.74;52.49
75961;SHT30;64644;48.914;2.254;2023-02-28T09:14:23;5.80;52.45
75961;SHT30;64644;48.914;2.254;2023-02-28T09:16:48;5.88;52.34
75961;SHT30;64644;48.914;2.254;2023-02-28T09:19:14;5.90;52.21
75961;SHT30;64644;48.914;2.254;2023-02-28T09:21:39;5.99;52.10
75961;SHT30;64644;48.914;2.254;2023-02-28T09:24:05;6.04;51.69
75961;SHT30;64644;48.914;2.254;2023-02-28T09:26:31;6.08;51.72
75961;SHT30;64644;48.914;2.254;2023-02-28T09:28:56;6.18;51.67
75961;SHT30;64644;48.914;2.254;2023-02-28T09:31:26;6.25;51.54
75961;SHT30;64644;48.914;2.254;2023-02-28T09:33:57;6.32;51.62
75961;SHT30;64644;48.914;2.254;2023-02-28T09:36:25;6.44;51.78
75961;SHT30;64644;48.914;2.254;2023-02-28T09:38:51;6.50;51.53
75961;SHT30;64644;48.914;2.254;2023-02-28T09:41:36;6.57;51.15
75961;SHT30;64644;48.914;2.254;2023-02-28T09:44:04;6.61;51.07
75961;SHT30;64644;48.914;2.254;2023-02-28T09:46:40;6.66;50.91
75961;SHT30;64644;48.914;2.254;2023-02-28T09:49:12;6.70;50.70
75961;SHT30;64644;48.914;2.254;2023-02-28T09:54:20;6.81;50.67
75961;SHT30;64644;48.914;2.254;2023-02-28T09:56:54;6.87;50.54
75961;SHT30;64644;48.914;2.254;2023-02-28T10:02:38;7.08;50.26
75961;SHT30;64644;48.914;2.254;2023-02-28T10:05:10;7.06;49.83
75961;SHT30;64644;48.914;2.254;2023-02-28T10:07:55;7.16;50.01
75961;SHT30;64644;48.914;2.254;2023-02-28T10:10:44;7.24;50.02
75961;SHT30;64644;48.914;2.254;2023-02-28T10:13:19;7.30;49.90
75961;SHT30;64644;48.914;2.254;2023-02-28T10:15:47;7.33;49.90
75961;SHT30;64644;48.914;2.254;2023-02-28T10:18:24;7.42;49.72
75961;SHT30;64644;48.914;2.254;2023-02-28T10:20:52;7.46;49.85
75961;SHT30;64644;48.914;2.254;2023-02-28T10:23:41;7.54;49.93
75961;SHT30;64644;48.914;2.254;2023-02-28T10:26:16;7.63;49.50
75961;SHT30;64644;48.914;2.254;2023-02-28T10:28:42;7.68;49.62
75961;SHT30;64644;48.914;2.254;2023-02-28T10:31:12;7.79;48.99
75961;SHT30;64644;48.914;2.254;2023-02-28T10:33:40;7.86;48.69
75961;SHT30;64644;48.914;2.254;2023-02-28T10:36:06;7.98;48.49
75961;SHT30;64644;48.914;2.254;2023-02-28T10:38:36;8.05;48.08
75961;SHT30;64644;48.914;2.254;2023-02-28T10:41:14;8.16;47.82
75961;SHT30;64644;48.914;2.254;2023-02-28T10:43:41;8.26;47.83
75961;SHT30;64644;48.914;2.254;2023-02-28T10:48:45;8.41;46.73
75961;SHT30;64644;48.914;2.254;2023-02-28T10:51:16;8.54;46.04
75961;SHT30;64644;48.914;2.254;2023-02-28T11:01:19;8.79;45.10
75961;SHT30;64644;48.914;2.254;2023-02-28T11:03:45;8.85;44.74
75961;SHT30;64644;48.914;2.254;2023-02-28T11:08:55;8.91;44.54
75961;SHT30;64644;48.914;2.254;2023-02-28T11:11:22;8.91;44.16
75961;SHT30;64644;48.914;2.254;2023-02-28T11:13:53;8.85;43.06
75961;SHT30;64644;48.914;2.254;2023-02-28T11:16:20;8.89;43.13
75961;SHT30;64644;48.914;2.254;2023-02-28T11:18:52;8.93;43.09
75961;SHT30;64644;48.914;2.254;2023-02-28T11:21:38;9.02;43.30
75961;SHT30;64644;48.914;2.254;2023-02-28T11:24:21;9.20;42.51
75961;SHT30;64644;48.914;2.254;2023-02-28T11:26:48;9.40;42.48
75961;SHT30;64644;48.914;2.254;2023-02-28T11:32:13;9.68;42.11
75961;SHT30;64644;48.914;2.254;2023-02-28T11:34:36;9.74;42.14
75961;SHT30;64644;48.914;2.254;2023-02-28T11:37:02;9.72;42.00
75961;SHT30;64644;48.914;2.254;2023-02-28T11:39:31;9.68;41.48
75961;SHT30;64644;48.914;2.254;2023-02-28T11:45:08;9.61;41.56
75961;SHT30;64644;48.914;2.254;2023-02-28T11:47:55;9.52;41.52
75961;SHT30;64644;48.914;2.254;2023-02-28T12:02:20;9.30;41.25
75961;SHT30;64644;48.914;2.254;2023-02-28T12:07:45;9.51;41.09
75961;SHT30;64644;48.914;2.254;2023-02-28T12:10:24;9.62;41.14
75961;SHT30;64644;48.914;2.254;2023-02-28T12:15:47;9.68;40.47
75961;SHT30;64644;48.914;2.254;2023-02-28T12:26:42;9.26;40.38
75961;SHT30;64644;48.914;2.254;2023-02-28T12:31:54;9.15;40.35
75961;SHT30;64644;48.914;2.254;2023-02-28T12:34:27;9.23;40.04
75961;SHT30;64644;48.914;2.254;2023-02-28T12:36:56;9.31;40.07
75961;SHT30;64644;48.914;2.254;2023-02-28T12:39:27;9.47;39.82
75961;SHT30;64644;48.914;2.254;2023-02-28T12:42:03;9.59;39.83
75961;SHT30;64644;48.914;2.254;2023-02-28T12:44:37;9.77;39.96
75961;SHT30;64644;48.914;2.254;2023-02-28T12:47:13;9.92;39.60
75961;SHT30;64644;48.914;2.254;2023-02-28T12:52:11;10.00;39.63
75961;SHT30;64644;48.914;2.254;2023-02-28T12:54:56;10.09;39.32
75961;SHT30;64644;48.914;2.254;2023-02-28T13:00:03;10.29;38.50
75961;SHT30;64644;48.914;2.254;2023-02-28T13:08:24;10.61;38.61
75961;SHT30;64644;48.914;2.254;2023-02-28T13:10:52;10.76;38.60
75961;SHT30;64644;48.914;2.254;2023-02-28T13:13:23;10.91;37.91
75961;SHT30;64644;48.914;2.254;2023-02-28T13:18:49;11.12;37.74
75961;SHT30;64644;48.914;2.254;2023-02-28T13:21:27;11.22;37.52
75961;SHT30;64644;48.914;2.254;2023-02-28T13:34:31;11.58;36.64
75961;SHT30;64644;48.914;2.254;2023-02-28T13:39:47;11.71;36.21
75961;SHT30;64644;48.914;2.254;2023-02-28T13:42:34;11.57;35.98
75961;SHT30;64644;48.914;2.254;2023-02-28T13:47:43;11.38;35.91
75961;SHT30;64644;48.914;2.254;2023-02-28T14:01:47;10.38;36.03
75961;SHT30;64644;48.914;2.254;2023-02-28T14:07:17;10.18;36.13
75961;SHT30;64644;48.914;2.254;2023-02-28T14:09:48;10.18;36.39
75961;SHT30;64644;48.914;2.254;2023-02-28T14:12:54;10.05;36.38
75961;SHT30;64644;48.914;2.254;2023-02-28T14:15:40;9.99;36.36
75961;SHT30;64644;48.914;2.254;2023-02-28T14:18:29;9.83;36.39
75961;SHT30;64644;48.914;2.254;2023-02-28T14:21:30;9.75;36.69
75961;SHT30;64644;48.914;2.254;2023-02-28T14:33:23;9.67;36.93
75961;SHT30;64644;48.914;2.254;2023-02-28T14:38:57;9.50;36.33
75961;SHT30;64644;48.914;2.254;2023-02-28T14:41:37;9.45;36.29
75961;SHT30;64644;48.914;2.254;2023-02-28T14:44:21;9.38;36.16
75961;SHT30;64644;48.914;2.254;2023-02-28T14:46:56;9.33;36.49
75961;SHT30;64644;48.914;2.254;2023-02-28T14:49:37;9.28;36.56
75961;SHT30;64644;48.914;2.254;2023-02-28T14:52:15;9.22;36.62
75961;SHT30;64644;48.914;2.254;2023-02-28T14:54:41;9.23;36.75
75961;SHT30;64644;48.914;2.254;2023-02-28T14:57:29;9.19;37.08
75961;SHT30;64644;48.914;2.254;2023-02-28T15:00:15;9.17;37.19
75961;SHT30;64644;48.914;2.254;2023-02-28T15:02:42;9.16;37.08
75961;SHT30;64644;48.914;2.254;2023-02-28T15:07:46;9.12;37.37
75961;SHT30;64644;48.914;2.254;2023-02-28T15:10:19;9.15;37.63
75961;SHT30;64644;48.914;2.254;2023-02-28T15:12:58;9.16;37.13
75961;SHT30;64644;48.914;2.254;2023-02-28T15:15:33;9.16;37.09
75961;SHT30;64644;48.914;2.254;2023-02-28T15:18:03;9.16;36.97
75961;SHT30;64644;48.914;2.254;2023-02-28T15:20:31;9.17;37.40
75961;SHT30;64644;48.914;2.254;2023-02-28T15:22:57;9.15;37.56
75961;SHT30;64644;48.914;2.254;2023-02-28T15:25:23;9.12;37.10
75961;SHT30;64644;48.914;2.254;2023-02-28T15:27:53;9.10;36.95
75961;SHT30;64644;48.914;2.254;2023-02-28T15:30:23;9.03;36.61
75961;SHT30;64644;48.914;2.254;2023-02-28T15:35:34;8.91;36.81
75961;SHT30;64644;48.914;2.254;2023-02-28T15:38:00;8.89;36.90
75961;SHT30;64644;48.914;2.254;2023-02-28T15:40:35;8.89;36.84
75961;SHT30;64644;48.914;2.254;2023-02-28T15:45:36;8.88;37.08
75961;SHT30;64644;48.914;2.254;2023-02-28T15:48:05;8.82;36.95
75961;SHT30;64644;48.914;2.254;2023-02-28T15:50:31;8.81;37.13
75961;SHT30;64644;48.914;2.254;2023-02-28T15:52:56;8.75;37.33
75961;SHT30;64644;48.914;2.254;2023-02-28T15:55:24;8.72;37.11
75961;SHT30;64644;48.914;2.254;2023-02-28T15:57:54;8.69;37.17
75961;SHT30;64644;48.914;2.254;2023-02-28T16:00:23;8.65;37.17
75961;SHT30;64644;48.914;2.254;2023-02-28T16:02:49;8.60;37.30
75961;SHT30;64644;48.914;2.254;2023-02-28T16:07:46;8.51;37.24
75961;SHT30;64644;48.914;2.254;2023-02-28T16:10:14;8.48;36.98
75961;SHT30;64644;48.914;2.254;2023-02-28T16:12:40;8.46;37.08
75961;SHT30;64644;48.914;2.254;2023-02-28T16:15:08;8.41;37.18
75961;SHT30;64644;48.914;2.254;2023-02-28T16:17:37;8.40;37.08
75961;SHT30;64644;48.914;2.254;2023-02-28T16:20:15;8.39;36.86
75961;SHT30;64644;48.914;2.254;2023-02-28T16:22:41;8.37;37.15
75961;SHT30;64644;48.914;2.254;2023-02-28T16:25:11;8.36;36.98
75961;SHT30;64644;48.914;2.254;2023-02-28T16:27:38;8.30;36.70
75961;SHT30;64644;48.914;2.254;2023-02-28T16:30:05;8.28;36.61
75961;SHT30;64644;48.914;2.254;2023-02-28T16:32:32;8.23;36.80
75961;SHT30;64644;48.914;2.254;2023-02-28T16:34:59;8.22;36.55
75961;SHT30;64644;48.914;2.254;2023-02-28T16:37:26;8.20;36.95
75961;SHT30;64644;48.914;2.254;2023-02-28T16:39:51;8.17;36.94
75961;SHT30;64644;48.914;2.254;2023-02-28T16:42:25;8.19;37.36
75961;SHT30;64644;48.914;2.254;2023-02-28T16:44:52;8.17;37.17
75961;SHT30;64644;48.914;2.254;2023-02-28T16:47:18;8.16;37.44
75961;SHT30;64644;48.914;2.254;2023-02-28T16:49:44;8.14;37.52
75961;SHT30;64644;48.914;2.254;2023-02-28T16:52:10;8.17;37.39
75961;SHT30;64644;48.914;2.254;2023-02-28T16:54:37;8.13;37.48
75961;SHT30;64644;48.914;2.254;2023-02-28T16:57:03;8.13;37.17
75961;SHT30;64644;48.914;2.254;2023-02-28T16:59:29;8.10;37.33
75961;SHT30;64644;48.914;2.254;2023-02-28T17:01:55;8.07;37.66
75961;SHT30;64644;48.914;2.254;2023-02-28T17:04:23;8.06;37.50
75961;SHT30;64644;48.914;2.254;2023-02-28T17:06:49;7.98;37.44
75961;SHT30;64644;48.914;2.254;2023-02-28T17:09:23;7.95;37.57
75961;SHT30;64644;48.914;2.254;2023-02-28T17:11:48;7.98;37.77
75961;SHT30;64644;48.914;2.254;2023-02-28T17:14:15;7.94;37.86
75961;SHT30;64644;48.914;2.254;2023-02-28T17:16:41;7.88;38.06
75961;SHT30;64644;48.914;2.254;2023-02-28T17:19:13;7.86;38.09
75961;SHT30;64644;48.914;2.254;2023-02-28T17:21:39;7.82;37.94
75961;SHT30;64644;48.914;2.254;2023-02-28T17:24:06;7.79;38.53
75961;SHT30;64644;48.914;2.254;2023-02-28T17:26:32;7.79;38.47
75961;SHT30;64644;48.914;2.254;2023-02-28T17:28:58;7.73;38.61
75961;SHT30;64644;48.914;2.254;2023-02-28T17:31:25;7.70;38.44
75961;SHT30;64644;48.914;2.254;2023-02-28T17:33:51;7.68;38.41
75961;SHT30;64644;48.914;2.254;2023-02-28T17:36:24;7.66;39.11
75961;SHT30;64644;48.914;2.254;2023-02-28T17:38:51;7.63;38.73
75961;SHT30;64644;48.914;2.254;2023-02-28T17:41:18;7.60;38.75
75961;SHT30;64644;48.914;2.254;2023-02-28T17:43:43;7.58;38.67
75961;SHT30;64644;48.914;2.254;2023-02-28T17:46:16;7.58;38.90
75961;SHT30;64644;48.914;2.254;2023-02-28T17:48:43;7.56;38.51
75961;SHT30;64644;48.914;2.254;2023-02-28T17:51:12;7.53;38.63
75961;SHT30;64644;48.914;2.254;2023-02-28T17:53:37;7.50;38.68
75961;SHT30;64644;48.914;2.254;2023-02-28T17:56:02;7.51;38.73
75961;SHT30;64644;48.914;2.254;2023-02-28T17:58:28;7.51;38.77
75961;SHT30;64644;48.914;2.254;2023-02-28T18:00:53;7.51;38.52
75961;SHT30;64644;48.914;2.254;2023-02-28T18:03:19;7.53;38.72
75961;SHT30;64644;48.914;2.254;2023-02-28T18:05:46;7.51;38.68
75961;SHT30;64644;48.914;2.254;2023-02-28T18:08:12;7.50;38.88
75961;SHT30;64644;48.914;2.254;2023-02-28T18:10:38;7.47;39.17
75961;SHT30;64644;48.914;2.254;2023-02-28T18:13:04;7.46;38.96
75961;SHT30;64644;48.914;2.254;2023-02-28T18:15:29;7.44;39.01
75961;SHT30;64644;48.914;2.254;2023-02-28T18:17:55;7.43;38.82
75961;SHT30;64644;48.914;2.254;2023-02-28T18:20:23;7.43;38.88
75961;SHT30;64644;48.914;2.254;2023-02-28T18:22:53;7.42;39.06
75961;SHT30;64644;48.914;2.254;2023-02-28T18:25:23;7.37;39.03
75961;SHT30;64644;48.914;2.254;2023-02-28T18:27:48;7.34;38.92
75961;SHT30;64644;48.914;2.254;2023-02-28T18:30:29;7.34;38.97